Archival Weather

Chicago O'Hare International

Chicago, Illinois (KORD)

Report from: Wednesday, January 25, 2023 1:35 AM CST
Current time: Monday, February 6, 2023 12:15 AM CST

Current weather
Weather history
Weather forecast

Present weatherLight snow
Temperature0.0°C (32.0°F)
Wind chill-2.5°C (27.5°F)
Dew point-2.8°C (27.0°F)
Winds 4 kts (2.1 m/s, 4.6 mph) East-Southeast (110°)
Visibility2 mi. (3.2 km)
Clouds Ceiling: Overcast 1,100 ft. (335 m)
Altimeter29.97 in.Hg (1015 mB)
PrecipitiationTrace
Precip. events Snow began 1:26 AM
Relative humidity81 %
Density altitude-1,812 ft. (-552 m)
Remarks Automated weather observing station with precipitation discriminator
Flight conditions Instrument Meteorological Conditions
Raw dataKORD 250735Z 11004KT 2SM -SN OVC011 00/M03 A2997 RMK AO2 SNB26 P0000 T00001028
An error has occurred. This application may no longer respond until reloaded. Reload 🗙